Aviation Digital Data Service (ADDS)

Output produced by METARs form (0315 UTC 18 June 2019)
found at http://www.aviationweather.gov/metar/data/
 
Forecast for: EDDB (BERLIN/SCHONEFEL, DE)
Text: TAF EDDB 172300Z 1800/1824 08004KT CAVOK
Forecast period: 0000 to 0500 UTC 18 June 2019
Forecast type: FROM: standard forecast or significant change
Winds: from the E (80 degrees) at 5 MPH (4 knots; 2.1 m/s)
Visibility: 6 or more miles 10+ km)
Ceiling: unknown
Clouds: missing
Weather: NSW  (no significant weather)
Text: BECMG 1805/1807 12009KT
Forecast period: 0500 UTC 18 June 2019 to 0000 UTC 19 June 2019
Forecast type: BECOMING: Conditions expected to become as follows by 0700 UTC 18 June 2019
Winds: from the ESE (120 degrees) at 10 MPH (9 knots; 4.6 m/s)
Visibility: 6 or more miles 10+ km)
Ceiling: unknown
Clouds: missing
Weather: NSW  (no significant weather)